Time;durP1;ratioP1;P1;durP2;ratioP2;P2;SDS_P1;SDS_P2;PMS_P1;PMS_P2;Temp;Humidity;BMP_temperature;BMP_pressure;BME280_temperature;BME280_humidity;BME280_pressure;Samples;Min_cycle;Max_cycle;Signal;HPM_P1;HPM_P2
2022/03/22 00:01:44;;;;;;;5.27;4.87;;;;;;;;;;5069020;28;20293;-68
2022/03/22 00:04:31;;;;;;;4.77;4.47;;;;;;;;;;5074238;28;20207;-67
2022/03/22 00:07:18;;;;;;;5.20;4.80;;;;;;;;;;5079021;28;20344;-68
2022/03/22 00:10:06;;;;;;;5.53;5.03;;;;;;;;;;5070442;28;20320;-67
2022/03/22 00:12:55;;;;;;;5.30;4.90;;;;;;;;;;5078981;28;20355;-67
2022/03/22 00:15:41;;;;;;;5.43;5.03;;;;;;;;;;5082874;28;20287;-68
2022/03/22 00:18:29;;;;;;;5.47;5.07;;;;;;;;;;5071350;28;20283;-67
2022/03/22 00:21:19;;;;;;;5.60;5.20;;;;;;;;;;5077848;28;20207;-67
2022/03/22 00:24:07;;;;;;;5.23;4.83;;;;;;;;;;5076612;28;20234;-68
2022/03/22 00:26:53;;;;;;;4.87;4.47;;;;;;;;;;5084346;28;20239;-67
2022/03/22 00:29:42;;;;;;;5.27;4.87;;;;;;;;;;5074285;28;20256;-68
2022/03/22 00:32:29;;;;;;;4.77;4.43;;;;;;;;;;5075295;28;20199;-67
2022/03/22 00:35:18;;;;;;;5.10;4.70;;;;;;;;;;5077921;28;20216;-68
2022/03/22 00:38:06;;;;;;;5.30;4.90;;;;;;;;;;5082642;28;20199;-69
2022/03/22 00:40:54;;;;;;;5.40;5.00;;;;;;;;;;5073864;28;20661;-68
2022/03/22 00:43:41;;;;;;;4.80;4.50;;;;;;;;;;5075219;28;20285;-76
2022/03/22 00:46:29;;;;;;;5.23;4.83;;;;;;;;;;5076838;28;20562;-68
2022/03/22 00:49:16;;;;;;;5.40;4.90;;;;;;;;;;5077876;28;20550;-67
2022/03/22 00:52:04;;;;;;;5.40;5.00;;;;;;;;;;5078092;28;20698;-68
2022/03/22 00:54:52;;;;;;;4.97;4.57;;;;;;;;;;5077181;28;20804;-68
2022/03/22 00:57:40;;;;;;;5.40;5.00;;;;;;;;;;5074774;28;20578;-68
2022/03/22 01:00:28;;;;;;;5.27;4.77;;;;;;;;;;5079792;28;20204;-68
2022/03/22 01:03:16;;;;;;;4.77;4.47;;;;;;;;;;5077550;28;20292;-68
2022/03/22 01:06:04;;;;;;;4.87;4.57;;;;;;;;;;5079864;28;20357;-68
2022/03/22 01:08:51;;;;;;;4.93;4.63;;;;;;;;;;5080724;28;20673;-68
2022/03/22 01:11:39;;;;;;;5.03;4.73;;;;;;;;;;5082207;28;20397;-68
2022/03/22 01:14:27;;;;;;;5.40;5.00;;;;;;;;;;5077979;28;20210;-68
2022/03/22 01:17:14;;;;;;;4.90;4.60;;;;;;;;;;5080650;28;20270;-68
2022/03/22 01:20:05;;;;;;;4.93;4.63;;;;;;;;;;5081817;28;20297;-68
2022/03/22 01:22:53;;;;;;;5.23;4.83;;;;;;;;;;5081207;28;20295;-68
2022/03/22 01:25:43;;;;;;;5.37;4.97;;;;;;;;;;5077977;28;20699;-68
2022/03/22 01:28:30;;;;;;;5.07;4.67;;;;;;;;;;5078855;28;20682;-68
2022/03/22 01:31:17;;;;;;;5.10;4.70;;;;;;;;;;5079973;28;20304;-68
2022/03/22 01:34:04;;;;;;;5.13;4.83;;;;;;;;;;5072145;28;20237;-68
2022/03/22 01:36:52;;;;;;;5.37;4.93;;;;;;;;;;5084374;28;20200;-68
2022/03/22 01:39:39;;;;;;;5.27;4.87;;;;;;;;;;5082231;28;20293;-68
2022/03/22 01:42:26;;;;;;;4.90;4.60;;;;;;;;;;5073356;28;20258;-68
2022/03/22 01:45:13;;;;;;;4.57;4.27;;;;;;;;;;5079141;28;20447;-68
2022/03/22 01:48:03;;;;;;;5.00;4.60;;;;;;;;;;5078040;28;20207;-68
2022/03/22 01:50:50;;;;;;;5.07;4.67;;;;;;;;;;5079552;28;20722;-68
2022/03/22 01:53:42;;;;;;;5.60;5.20;;;;;;;;;;5084884;28;20245;-67
2022/03/22 01:56:29;;;;;;;5.10;4.70;;;;;;;;;;5073550;28;20209;-68
2022/03/22 01:59:16;;;;;;;5.53;5.10;;;;;;;;;;5079827;28;20210;-68
2022/03/22 02:08:18;;;;;;;5.20;4.70;;;;;;;;;;5079161;28;20208;-68
2022/03/22 02:11:07;;;;;;;5.40;5.00;;;;;;;;;;5081349;28;20301;-68
2022/03/22 02:13:54;;;;;;;4.70;4.40;;;;;;;;;;5076564;28;20240;-68
2022/03/22 02:16:41;;;;;;;4.83;4.33;;;;;;;;;;5074732;28;20226;-67
2022/03/22 02:19:28;;;;;;;4.73;4.43;;;;;;;;;;5076434;28;20264;-68
2022/03/22 02:22:18;;;;;;;4.83;4.43;;;;;;;;;;5083616;28;20199;-68
2022/03/22 02:25:15;;;;;;;4.83;4.43;;;;;;;;;;5077715;28;20669;-68
2022/03/22 02:28:04;;;;;;;4.93;4.53;;;;;;;;;;5079666;28;20286;-68
2022/03/22 02:30:52;;;;;;;5.20;4.80;;;;;;;;;;5078700;28;20615;-69
2022/03/22 02:33:41;;;;;;;4.70;4.40;;;;;;;;;;5076986;28;20212;-68
2022/03/22 02:36:28;;;;;;;5.00;4.67;;;;;;;;;;5079385;28;20695;-68
2022/03/22 02:39:15;;;;;;;4.90;4.53;;;;;;;;;;5079649;28;20211;-68
2022/03/22 02:42:03;;;;;;;5.07;4.67;;;;;;;;;;5064259;28;20207;-68
2022/03/22 02:44:50;;;;;;;4.77;4.47;;;;;;;;;;5080127;28;20236;-68
2022/03/22 02:47:37;;;;;;;5.37;4.87;;;;;;;;;;5073652;28;20305;-68
2022/03/22 02:50:24;;;;;;;5.10;4.77;;;;;;;;;;5074879;28;21063;-68
2022/03/22 02:53:11;;;;;;;5.73;5.23;;;;;;;;;;5078386;28;20227;-68
2022/03/22 02:55:58;;;;;;;5.00;4.60;;;;;;;;;;5073807;28;20302;-68
2022/03/22 02:58:46;;;;;;;4.80;4.50;;;;;;;;;;5077772;28;20256;-68
2022/03/22 03:01:34;;;;;;;4.90;4.43;;;;;;;;;;5080307;28;20214;-68
2022/03/22 03:04:21;;;;;;;4.90;4.60;;;;;;;;;;5081115;28;20212;-68
2022/03/22 03:07:07;;;;;;;5.03;4.60;;;;;;;;;;5076897;28;20259;-67
2022/03/22 03:09:54;;;;;;;5.03;4.63;;;;;;;;;;5077731;28;20296;-68
2022/03/22 03:12:41;;;;;;;4.60;4.30;;;;;;;;;;5079024;28;20287;-68
2022/03/22 03:15:31;;;;;;;5.10;4.70;;;;;;;;;;5070742;28;20292;-68
2022/03/22 03:18:18;;;;;;;5.30;4.90;;;;;;;;;;5079851;28;20222;-68
2022/03/22 03:21:05;;;;;;;5.33;4.40;;;;;;;;;;5081265;28;20210;-69
2022/03/22 03:23:52;;;;;;;5.00;4.60;;;;;;;;;;5072849;28;20252;-68
2022/03/22 03:26:39;;;;;;;5.20;4.80;;;;;;;;;;5079227;28;20308;-68
2022/03/22 03:29:26;;;;;;;5.17;4.77;;;;;;;;;;5070620;28;20215;-68
2022/03/22 03:32:15;;;;;;;4.80;4.50;;;;;;;;;;5079654;28;20318;-67
2022/03/22 03:35:03;;;;;;;5.10;4.70;;;;;;;;;;5083998;28;20676;-68
2022/03/22 03:37:49;;;;;;;4.60;4.30;;;;;;;;;;5078628;28;20634;-68
2022/03/22 03:43:37;;;;;;;4.97;4.53;;;;;;;;;;5074870;28;20225;-68
2022/03/22 03:49:30;;;;;;;4.63;4.33;;;;;;;;;;5075026;28;20209;-68
2022/03/22 03:52:19;;;;;;;5.20;4.80;;;;;;;;;;5072257;28;20260;-69
2022/03/22 03:55:08;;;;;;;4.80;4.50;;;;;;;;;;5076425;28;20295;-71
2022/03/22 03:57:55;;;;;;;5.33;4.93;;;;;;;;;;5075411;28;20208;-68
2022/03/22 04:00:42;;;;;;;4.73;4.43;;;;;;;;;;5076267;28;20309;-67
2022/03/22 04:03:29;;;;;;;5.10;4.70;;;;;;;;;;5079073;28;20216;-68
2022/03/22 04:06:17;;;;;;;4.83;4.43;;;;;;;;;;5075482;28;20235;-68
2022/03/22 04:09:04;;;;;;;4.67;4.37;;;;;;;;;;5078455;28;20266;-69
2022/03/22 04:11:51;;;;;;;5.00;4.60;;;;;;;;;;5078002;28;20810;-68
2022/03/22 04:14:38;;;;;;;4.80;4.50;;;;;;;;;;5072355;28;20287;-68
2022/03/22 04:17:25;;;;;;;5.20;4.80;;;;;;;;;;5077696;28;20238;-68
2022/03/22 04:20:12;;;;;;;4.93;4.63;;;;;;;;;;5069454;28;20205;-68
2022/03/22 04:23:01;;;;;;;4.73;4.43;;;;;;;;;;5072645;28;20298;-68
2022/03/22 04:25:47;;;;;;;5.10;4.70;;;;;;;;;;5075428;28;20240;-68
2022/03/22 04:34:44;;;;;;;5.73;5.23;;;;;;;;;;5059162;28;20220;-68
2022/03/22 04:37:31;;;;;;;5.90;5.43;;;;;;;;;;5067532;28;20295;-68
2022/03/22 04:40:20;;;;;;;5.17;4.77;;;;;;;;;;5076361;28;20285;-67
2022/03/22 04:43:07;;;;;;;6.00;5.60;;;;;;;;;;5080722;28;20252;-67
2022/03/22 04:45:54;;;;;;;5.60;5.20;;;;;;;;;;5069933;28;20204;-67
2022/03/22 04:48:42;;;;;;;5.90;5.50;;;;;;;;;;5074557;28;20213;-67
2022/03/22 04:57:39;;;;;;;6.33;5.80;;;;;;;;;;5076572;28;20220;-67
2022/03/22 05:00:26;;;;;;;5.67;5.27;;;;;;;;;;5071359;28;20330;-67
2022/03/22 05:03:13;;;;;;;5.90;5.20;;;;;;;;;;5077597;28;20255;-67
2022/03/22 05:09:04;;;;;;;5.53;5.13;;;;;;;;;;5078172;28;20205;-67
2022/03/22 05:11:51;;;;;;;6.10;5.47;;;;;;;;;;5075348;28;20267;-67
2022/03/22 05:14:40;;;;;;;5.43;5.03;;;;;;;;;;5080821;28;20333;-67
2022/03/22 05:17:27;;;;;;;5.63;5.13;;;;;;;;;;5071922;28;20212;-67
2022/03/22 05:20:15;;;;;;;8.23;5.23;;;;;;;;;;5073117;28;20284;-67
2022/03/22 05:23:02;;;;;;;5.67;5.27;;;;;;;;;;5083253;28;20204;-68
2022/03/22 05:25:48;;;;;;;5.83;5.30;;;;;;;;;;5069659;28;20283;-67
2022/03/22 05:28:37;;;;;;;6.10;5.50;;;;;;;;;;5074300;28;20246;-68
2022/03/22 05:31:26;;;;;;;5.47;5.07;;;;;;;;;;5070750;28;20234;-67
2022/03/22 05:34:13;;;;;;;5.50;5.10;;;;;;;;;;5077281;28;20241;-67
2022/03/22 05:37:00;;;;;;;5.23;4.83;;;;;;;;;;5074929;28;20205;-67
2022/03/22 05:39:47;;;;;;;5.50;5.00;;;;;;;;;;5075458;28;20199;-68
2022/03/22 05:42:36;;;;;;;5.83;5.40;;;;;;;;;;5078948;28;20301;-67
2022/03/22 05:45:26;;;;;;;5.50;5.00;;;;;;;;;;5071745;28;20299;-67
2022/03/22 05:48:15;;;;;;;5.63;5.13;;;;;;;;;;5076635;28;20254;-67
2022/03/22 05:51:02;;;;;;;5.33;4.80;;;;;;;;;;5079538;28;20301;-68
2022/03/22 05:53:48;;;;;;;5.77;5.37;;;;;;;;;;5084611;28;20673;-67
2022/03/22 05:56:35;;;;;;;5.17;4.63;;;;;;;;;;5082724;28;20212;-67
2022/03/22 05:59:22;;;;;;;5.43;4.97;;;;;;;;;;5070176;28;20217;-68
2022/03/22 06:02:10;;;;;;;5.73;4.93;;;;;;;;;;5076533;28;20289;-68
2022/03/22 06:04:58;;;;;;;5.87;5.30;;;;;;;;;;5075956;28;20205;-67
2022/03/22 06:07:45;;;;;;;5.00;4.60;;;;;;;;;;5080945;28;20682;-68
2022/03/22 06:10:32;;;;;;;5.70;5.30;;;;;;;;;;5081352;28;20233;-69
2022/03/22 06:13:19;;;;;;;5.37;4.97;;;;;;;;;;5078967;28;20212;-69
2022/03/22 06:16:06;;;;;;;5.40;5.00;;;;;;;;;;5073378;28;20732;-74
2022/03/22 06:18:54;;;;;;;6.33;4.77;;;;;;;;;;5077366;28;20261;-67
2022/03/22 06:21:42;;;;;;;5.03;4.63;;;;;;;;;;5075147;28;20212;-68
2022/03/22 06:24:29;;;;;;;5.13;4.73;;;;;;;;;;5085239;28;20214;-67
2022/03/22 06:27:17;;;;;;;5.80;5.30;;;;;;;;;;5077173;28;20288;-67
2022/03/22 06:30:06;;;;;;;6.43;5.83;;;;;;;;;;5081784;28;20206;-68
2022/03/22 06:32:56;;;;;;;8.30;7.50;;;;;;;;;;5076958;28;20225;-68
2022/03/22 06:35:43;;;;;;;8.20;7.30;;;;;;;;;;5077530;28;20212;-69
2022/03/22 06:38:32;;;;;;;8.37;7.53;;;;;;;;;;5074026;28;20274;-67
2022/03/22 06:41:19;;;;;;;9.90;8.10;;;;;;;;;;5072904;28;20200;-67
2022/03/22 06:44:06;;;;;;;10.30;8.70;;;;;;;;;;5078397;28;20301;-67
2022/03/22 06:46:54;;;;;;;10.17;8.50;;;;;;;;;;5082423;28;20294;-67
2022/03/22 06:49:41;;;;;;;10.60;8.70;;;;;;;;;;5073420;28;20664;-67
2022/03/22 06:52:27;;;;;;;9.23;8.20;;;;;;;;;;5071495;28;20231;-68
2022/03/22 06:55:18;;;;;;;9.83;8.57;;;;;;;;;;5074014;28;20577;-68
2022/03/22 06:58:06;;;;;;;10.47;8.37;;;;;;;;;;5077919;28;20197;-68
2022/03/22 07:00:55;;;;;;;9.87;8.37;;;;;;;;;;5071750;28;20386;-68
2022/03/22 07:03:42;;;;;;;9.33;8.43;;;;;;;;;;5072960;28;20214;-68
2022/03/22 07:06:29;;;;;;;9.83;8.80;;;;;;;;;;5076943;28;20368;-67
2022/03/22 07:09:16;;;;;;;10.43;8.23;;;;;;;;;;5075417;28;20587;-67
2022/03/22 07:12:05;;;;;;;9.20;8.30;;;;;;;;;;5073075;28;20257;-67
2022/03/22 07:14:53;;;;;;;9.90;8.53;;;;;;;;;;5077675;28;20677;-67
2022/03/22 07:17:40;;;;;;;9.60;8.30;;;;;;;;;;5071558;28;20208;-65
2022/03/22 07:20:28;;;;;;;8.35;7.55;;;;;;;;;;5080036;28;20209;-65
2022/03/22 07:23:15;;;;;;;8.65;7.88;;;;;;;;;;5075102;28;20282;-65
2022/03/22 07:26:02;;;;;;;7.85;7.15;;;;;;;;;;5073619;28;20340;-66
2022/03/22 07:28:50;;;;;;;8.85;7.25;;;;;;;;;;5074815;28;20264;-66
2022/03/22 07:31:38;;;;;;;8.40;7.55;;;;;;;;;;5070465;28;20233;-66
2022/03/22 07:34:25;;;;;;;8.32;7.53;;;;;;;;;;5079465;28;20198;-65
2022/03/22 07:37:13;;;;;;;8.07;7.28;;;;;;;;;;5070275;28;20265;-65
2022/03/22 07:40:00;;;;;;;7.40;6.75;;;;;;;;;;5063959;28;20330;-64
2022/03/22 07:42:48;;;;;;;7.57;6.93;;;;;;;;;;5071709;28;20497;-65
2022/03/22 07:45:37;;;;;;;7.97;7.30;;;;;;;;;;5074758;28;20824;-64
2022/03/22 07:48:24;;;;;;;8.00;7.20;;;;;;;;;;5075351;28;20211;-66
2022/03/22 07:54:15;;;;;;;7.53;6.82;;;;;;;;;;5075940;28;20204;-63
2022/03/22 07:57:02;;;;;;;6.85;6.20;;;;;;;;;;5077761;28;20312;-64
2022/03/22 07:59:49;;;;;;;7.35;6.65;;;;;;;;;;5075344;28;20364;-64
2022/03/22 08:02:37;;;;;;;7.30;6.70;;;;;;;;;;5077030;28;20202;-64
2022/03/22 08:05:26;;;;;;;7.40;6.80;;;;;;;;;;5075156;28;20253;-65
2022/03/22 08:08:13;;;;;;;7.00;6.47;;;;;;;;;;5075145;28;20243;-64
2022/03/22 08:11:00;;;;;;;7.93;6.78;;;;;;;;;;5069975;28;20251;-67
2022/03/22 08:13:47;;;;;;;7.40;6.70;;;;;;;;;;5072709;28;20702;-67
2022/03/22 08:16:36;;;;;;;6.85;6.25;;;;;;;;;;5073137;28;20638;-67
2022/03/22 08:19:28;;;;;;;7.07;6.45;;;;;;;;;;5068202;28;20215;-67
2022/03/22 08:22:15;;;;;;;6.47;5.97;;;;;;;;;;5082116;28;20507;-66
2022/03/22 08:25:02;;;;;;;7.20;6.60;;;;;;;;;;5073091;28;20257;-67
2022/03/22 08:27:49;;;;;;;7.10;6.43;;;;;;;;;;5077057;28;20203;-67
2022/03/22 08:30:38;;;;;;;7.03;6.43;;;;;;;;;;5073011;28;20740;-67
2022/03/22 08:33:25;;;;;;;6.85;6.35;;;;;;;;;;5070243;28;20317;-67
2022/03/22 08:36:13;;;;;;;6.93;6.32;;;;;;;;;;5072576;28;20249;-67
2022/03/22 08:39:01;;;;;;;6.68;6.15;;;;;;;;;;5071216;28;20211;-67
2022/03/22 08:41:47;;;;;;;7.07;6.20;;;;;;;;;;5070247;28;20226;-67
2022/03/22 08:44:34;;;;;;;6.30;5.80;;;;;;;;;;5074946;28;20322;-67
2022/03/22 08:47:21;;;;;;;6.60;6.10;;;;;;;;;;5077300;28;20257;-68
2022/03/22 08:50:10;;;;;;;7.90;6.17;;;;;;;;;;5071710;28;20292;-67
2022/03/22 08:52:59;;;;;;;5.90;5.40;;;;;;;;;;5070566;28;20322;-66
2022/03/22 08:55:47;;;;;;;6.40;6.00;;;;;;;;;;5075958;28;20213;-66
2022/03/22 08:58:33;;;;;;;6.30;5.80;;;;;;;;;;5069481;28;20239;-66
2022/03/22 09:01:25;;;;;;;6.60;6.00;;;;;;;;;;5073504;28;20226;-66
2022/03/22 09:07:16;;;;;;;6.63;5.93;;;;;;;;;;5077655;28;20200;-67
2022/03/22 09:10:05;;;;;;;6.43;5.90;;;;;;;;;;5077781;28;20291;-68
2022/03/22 09:12:53;;;;;;;6.20;5.73;;;;;;;;;;5071831;28;20232;-67
2022/03/22 09:15:40;;;;;;;6.43;5.93;;;;;;;;;;5076627;28;20620;-67
2022/03/22 09:18:27;;;;;;;6.37;5.87;;;;;;;;;;5073148;28;20205;-67
2022/03/22 09:21:15;;;;;;;6.40;5.90;;;;;;;;;;5074317;28;20710;-67
2022/03/22 09:24:03;;;;;;;6.03;5.53;;;;;;;;;;5076369;28;20208;-67
2022/03/22 09:26:51;;;;;;;6.47;5.87;;;;;;;;;;5075525;28;20223;-67
2022/03/22 09:29:38;;;;;;;5.67;5.17;;;;;;;;;;5075916;28;20308;-68
2022/03/22 09:32:25;;;;;;;5.67;5.23;;;;;;;;;;5076657;28;20314;-66
2022/03/22 09:35:14;;;;;;;6.03;5.57;;;;;;;;;;5078639;28;20212;-67
2022/03/22 09:38:01;;;;;;;6.10;5.60;;;;;;;;;;5078400;28;20291;-67
2022/03/22 09:40:48;;;;;;;5.80;5.40;;;;;;;;;;5081230;28;20241;-67
2022/03/22 09:43:37;;;;;;;5.30;4.90;;;;;;;;;;5079643;28;20271;-67
2022/03/22 09:46:24;;;;;;;5.67;5.27;;;;;;;;;;5074374;28;20295;-66
2022/03/22 09:49:10;;;;;;;5.90;5.40;;;;;;;;;;5079025;28;20201;-67
2022/03/22 09:51:58;;;;;;;5.33;4.93;;;;;;;;;;5083093;28;20363;-66
2022/03/22 09:54:46;;;;;;;6.17;5.67;;;;;;;;;;5080877;28;20220;-66
2022/03/22 09:57:33;;;;;;;6.00;5.50;;;;;;;;;;5077771;28;20209;-66
2022/03/22 10:00:21;;;;;;;5.80;5.40;;;;;;;;;;5081378;28;20213;-66
2022/03/22 10:03:09;;;;;;;6.07;5.57;;;;;;;;;;5073450;28;20209;-66
2022/03/22 10:06:00;;;;;;;5.90;5.40;;;;;;;;;;5077370;28;20212;-66
2022/03/22 10:08:50;;;;;;;5.80;5.40;;;;;;;;;;5083882;28;20207;-66
2022/03/22 10:11:39;;;;;;;5.60;5.20;;;;;;;;;;5086655;28;20227;-66
2022/03/22 10:14:38;;;;;;;5.50;5.10;;;;;;;;;;5074737;28;20263;-66
2022/03/22 10:17:30;;;;;;;5.47;5.07;;;;;;;;;;5078203;28;20216;-66
2022/03/22 10:20:23;;;;;;;4.97;4.67;;;;;;;;;;5071018;28;20202;-66
2022/03/22 10:23:11;;;;;;;5.70;5.30;;;;;;;;;;5075552;28;20254;-66
2022/03/22 10:26:06;;;;;;;5.33;4.93;;;;;;;;;;5073495;28;20214;-67
2022/03/22 10:28:55;;;;;;;5.83;5.43;;;;;;;;;;5076160;28;20226;-66
2022/03/22 10:31:43;;;;;;;5.40;5.00;;;;;;;;;;5078445;28;20292;-66
2022/03/22 10:34:31;;;;;;;5.40;5.00;;;;;;;;;;5076487;28;20208;-66
2022/03/22 10:37:25;;;;;;;5.20;4.70;;;;;;;;;;5074973;28;20221;-67
2022/03/22 10:40:24;;;;;;;5.83;5.23;;;;;;;;;;5080986;28;20606;-66
2022/03/22 10:43:12;;;;;;;5.00;4.63;;;;;;;;;;5066041;28;20310;-66
2022/03/22 10:46:01;;;;;;;5.40;5.00;;;;;;;;;;5079205;28;20291;-66
2022/03/22 10:48:48;;;;;;;5.40;5.00;;;;;;;;;;5074916;28;20213;-65
2022/03/22 10:51:44;;;;;;;5.60;5.07;;;;;;;;;;5077392;28;20324;-65
2022/03/22 10:54:30;;;;;;;5.67;5.20;;;;;;;;;;5077092;28;20213;-66
2022/03/22 10:57:22;;;;;;;5.50;5.10;;;;;;;;;;5069248;28;20691;-66
2022/03/22 11:00:10;;;;;;;5.60;5.20;;;;;;;;;;5076621;28;20213;-69
2022/03/22 11:02:58;;;;;;;5.47;5.07;;;;;;;;;;5062295;28;20245;-66
2022/03/22 11:05:47;;;;;;;5.23;4.83;;;;;;;;;;5076651;28;20282;-66
2022/03/22 11:08:37;;;;;;;5.00;4.70;;;;;;;;;;5080430;28;20305;-66
2022/03/22 11:11:25;;;;;;;5.40;5.00;;;;;;;;;;5076564;28;20200;-67
2022/03/22 11:14:14;;;;;;;5.47;5.07;;;;;;;;;;5075753;28;20624;-67
2022/03/22 11:17:01;;;;;;;5.23;4.83;;;;;;;;;;5075924;28;20301;-66
2022/03/22 11:19:49;;;;;;;5.60;5.20;;;;;;;;;;5082600;28;20221;-66
2022/03/22 11:22:36;;;;;;;5.10;4.70;;;;;;;;;;5074494;28;20218;-66
2022/03/22 11:25:31;;;;;;;5.13;4.77;;;;;;;;;;5080939;28;20294;-66
2022/03/22 11:28:19;;;;;;;5.17;4.83;;;;;;;;;;5074173;28;20215;-66
2022/03/22 11:31:10;;;;;;;5.20;4.90;;;;;;;;;;5075447;28;20200;-67
2022/03/22 11:34:12;;;;;;;5.30;4.97;;;;;;;;;;5082339;28;20225;-66
2022/03/22 11:37:01;;;;;;;5.27;4.93;;;;;;;;;;5077258;28;20212;-67
2022/03/22 11:42:59;;;;;;;5.00;4.60;;;;;;;;;;5070798;28;20221;-67
2022/03/22 11:45:48;;;;;;;5.40;5.00;;;;;;;;;;5072299;28;20253;-67
2022/03/22 11:48:35;;;;;;;5.20;4.80;;;;;;;;;;5077863;28;20555;-66
2022/03/22 11:51:24;;;;;;;5.20;4.80;;;;;;;;;;5082934;28;20347;-67
2022/03/22 11:54:11;;;;;;;5.70;5.20;;;;;;;;;;5066306;28;20600;-67
2022/03/22 11:57:00;;;;;;;5.37;4.97;;;;;;;;;;5066690;28;20206;-66
2022/03/22 11:59:48;;;;;;;5.20;4.90;;;;;;;;;;5071824;28;20214;-66
2022/03/22 12:02:39;;;;;;;5.37;4.87;;;;;;;;;;5075264;28;20217;-66
2022/03/22 12:05:26;;;;;;;5.10;4.70;;;;;;;;;;5078824;28;20376;-66
2022/03/22 12:08:16;;;;;;;5.23;4.90;;;;;;;;;;5079816;28;20292;-67
2022/03/22 12:11:04;;;;;;;5.00;4.70;;;;;;;;;;5079673;28;20730;-66
2022/03/22 12:13:51;;;;;;;5.47;5.07;;;;;;;;;;5080975;28;20255;-66
2022/03/22 12:16:39;;;;;;;4.83;4.53;;;;;;;;;;5071725;28;20333;-67
2022/03/22 12:19:26;;;;;;;5.40;4.90;;;;;;;;;;5081549;28;20216;-67
2022/03/22 12:22:13;;;;;;;5.37;4.97;;;;;;;;;;5073668;28;20211;-67
2022/03/22 12:25:01;;;;;;;5.40;5.00;;;;;;;;;;5072126;28;20657;-67
2022/03/22 12:27:53;;;;;;;5.60;5.20;;;;;;;;;;5072493;28;20687;-67
2022/03/22 12:30:42;;;;;;;5.17;4.87;;;;;;;;;;5072666;28;20288;-67
2022/03/22 12:33:36;;;;;;;5.10;4.73;;;;;;;;;;5075165;28;20282;-66
2022/03/22 12:36:25;;;;;;;5.50;5.10;;;;;;;;;;5069238;28;20270;-67
2022/03/22 12:39:12;;;;;;;5.40;5.00;;;;;;;;;;5074160;28;20685;-66
2022/03/22 12:41:59;;;;;;;5.77;5.27;;;;;;;;;;5072449;28;20294;-67
2022/03/22 12:44:48;;;;;;;5.50;5.10;;;;;;;;;;5076584;28;20269;-67
2022/03/22 12:47:36;;;;;;;5.70;5.20;;;;;;;;;;5081293;28;20609;-67
2022/03/22 12:50:27;;;;;;;5.40;5.00;;;;;;;;;;5070042;28;20205;-67
2022/03/22 12:53:14;;;;;;;5.30;4.90;;;;;;;;;;5076196;28;20734;-66
2022/03/22 12:56:02;;;;;;;5.57;5.13;;;;;;;;;;5074645;28;20207;-66
2022/03/22 12:58:51;;;;;;;5.63;5.23;;;;;;;;;;5079601;28;20213;-66
2022/03/22 13:01:40;;;;;;;5.80;5.40;;;;;;;;;;5079675;28;20204;-66
2022/03/22 13:04:29;;;;;;;4.97;4.67;;;;;;;;;;5080072;28;20203;-66
2022/03/22 13:07:21;;;;;;;5.33;4.93;;;;;;;;;;5067185;28;20220;-66
2022/03/22 13:13:17;;;;;;;6.00;5.50;;;;;;;;;;5071167;28;20237;-66
2022/03/22 13:16:04;;;;;;;5.60;5.20;;;;;;;;;;5073020;28;20219;-71
2022/03/22 13:18:52;;;;;;;4.93;4.60;;;;;;;;;;5074776;28;20214;-66
2022/03/22 13:21:42;;;;;;;5.80;5.40;;;;;;;;;;5077833;28;20206;-67
2022/03/22 13:24:35;;;;;;;5.80;5.40;;;;;;;;;;5078277;28;20210;-66
2022/03/22 13:27:24;;;;;;;5.13;4.83;;;;;;;;;;5075513;28;20292;-66
2022/03/22 13:30:19;;;;;;;5.23;4.90;;;;;;;;;;5081117;28;20212;-66
2022/03/22 13:33:10;;;;;;;5.43;5.03;;;;;;;;;;5075592;28;20709;-67
2022/03/22 13:35:59;;;;;;;5.23;4.93;;;;;;;;;;5070344;28;20367;-66
2022/03/22 13:38:50;;;;;;;5.10;4.70;;;;;;;;;;5073466;28;21038;-67
2022/03/22 13:41:38;;;;;;;4.53;4.23;;;;;;;;;;5073861;28;20285;-66
2022/03/22 13:44:28;;;;;;;4.90;4.60;;;;;;;;;;5069202;28;20340;-67
2022/03/22 13:47:26;;;;;;;4.80;4.40;;;;;;;;;;5069494;28;20302;-67
2022/03/22 13:50:16;;;;;;;4.93;4.63;;;;;;;;;;5073666;28;20206;-67
2022/03/22 13:53:06;;;;;;;4.70;4.40;;;;;;;;;;5074724;28;20265;-66
2022/03/22 13:56:07;;;;;;;4.50;4.20;;;;;;;;;;5070440;28;20293;-67
2022/03/22 13:58:55;;;;;;;4.63;4.33;;;;;;;;;;5078782;28;20205;-68
2022/03/22 14:01:45;;;;;;;4.73;4.43;;;;;;;;;;5068765;28;20234;-67
2022/03/22 14:04:34;;;;;;;4.67;4.37;;;;;;;;;;5079627;28;20219;-67
2022/03/22 14:07:21;;;;;;;4.80;4.50;;;;;;;;;;5069379;28;20265;-67
2022/03/22 14:10:08;;;;;;;4.20;3.90;;;;;;;;;;5075100;28;20288;-67
2022/03/22 14:12:56;;;;;;;4.77;4.47;;;;;;;;;;5075641;28;20213;-66
2022/03/22 14:15:46;;;;;;;4.57;4.27;;;;;;;;;;5073906;28;20257;-67
2022/03/22 14:18:32;;;;;;;4.60;4.23;;;;;;;;;;5082160;28;20414;-67
2022/03/22 14:21:19;;;;;;;5.00;4.40;;;;;;;;;;5078940;28;20683;-68
2022/03/22 14:24:07;;;;;;;4.93;4.63;;;;;;;;;;5073450;28;20740;-68
2022/03/22 14:26:55;;;;;;;4.80;4.30;;;;;;;;;;5082908;28;20608;-68
2022/03/22 14:29:41;;;;;;;4.70;4.40;;;;;;;;;;5067570;28;20205;-68
2022/03/22 14:32:30;;;;;;;4.40;4.10;;;;;;;;;;5077912;28;20266;-67
2022/03/22 14:38:25;;;;;;;4.70;4.30;;;;;;;;;;5075933;28;20211;-70
2022/03/22 14:41:25;;;;;;;4.80;4.50;;;;;;;;;;5076328;28;20600;-68
2022/03/22 14:44:12;;;;;;;4.30;4.10;;;;;;;;;;5075603;28;20228;-67
2022/03/22 14:46:58;;;;;;;4.40;4.10;;;;;;;;;;5071546;28;20604;-68
2022/03/22 14:49:47;;;;;;;4.53;4.23;;;;;;;;;;5078423;28;20206;-68
2022/03/22 14:55:39;;;;;;;4.60;4.30;;;;;;;;;;5072787;28;20282;-68
2022/03/22 15:01:31;;;;;;;4.70;4.40;;;;;;;;;;5080512;28;20240;-67
2022/03/22 15:04:19;;;;;;;5.13;4.70;;;;;;;;;;5076723;28;20206;-68
2022/03/22 15:07:07;;;;;;;4.77;4.40;;;;;;;;;;5076768;28;20281;-68
2022/03/22 15:09:54;;;;;;;4.17;3.87;;;;;;;;;;5079944;28;20202;-68
2022/03/22 15:12:41;;;;;;;4.77;4.27;;;;;;;;;;5075374;28;20727;-69
2022/03/22 15:15:28;;;;;;;4.93;4.53;;;;;;;;;;5070722;28;20687;-68
2022/03/22 15:18:16;;;;;;;4.87;4.47;;;;;;;;;;5076342;28;20283;-68
2022/03/22 15:21:04;;;;;;;4.90;4.50;;;;;;;;;;5073526;28;20214;-66
2022/03/22 15:23:52;;;;;;;4.97;4.67;;;;;;;;;;5081780;28;20250;-68
2022/03/22 15:26:39;;;;;;;4.93;4.53;;;;;;;;;;5083259;28;20670;-69
2022/03/22 15:29:26;;;;;;;4.60;4.30;;;;;;;;;;5077514;28;20214;-69
2022/03/22 15:32:13;;;;;;;4.70;4.30;;;;;;;;;;5075589;28;20241;-68
2022/03/22 15:35:00;;;;;;;4.50;4.20;;;;;;;;;;5078564;28;20276;-68
2022/03/22 15:37:48;;;;;;;4.67;4.37;;;;;;;;;;5083843;28;20207;-69
2022/03/22 15:40:37;;;;;;;5.00;4.60;;;;;;;;;;5070187;28;20227;-69
2022/03/22 15:43:25;;;;;;;4.80;4.50;;;;;;;;;;5077922;28;20258;-69
2022/03/22 15:46:13;;;;;;;4.93;4.53;;;;;;;;;;5072358;28;20208;-69
2022/03/22 15:49:00;;;;;;;4.60;4.30;;;;;;;;;;5075899;28;20300;-68
2022/03/22 15:51:49;;;;;;;5.07;4.70;;;;;;;;;;5077758;28;20748;-68
2022/03/22 15:54:37;;;;;;;5.43;5.03;;;;;;;;;;5074720;28;20315;-68
2022/03/22 15:57:25;;;;;;;4.63;4.33;;;;;;;;;;5080278;28;20205;-69
2022/03/22 16:00:13;;;;;;;4.90;4.50;;;;;;;;;;5070764;28;20210;-68
2022/03/22 16:03:00;;;;;;;4.90;4.60;;;;;;;;;;5079136;28;20748;-68
2022/03/22 16:05:47;;;;;;;4.80;4.40;;;;;;;;;;5082028;28;20225;-68
2022/03/22 16:08:34;;;;;;;5.03;4.63;;;;;;;;;;5076031;28;20238;-68
2022/03/22 16:11:21;;;;;;;5.10;4.70;;;;;;;;;;5078553;28;20211;-68
2022/03/22 16:14:10;;;;;;;5.40;4.67;;;;;;;;;;5073852;28;20266;-68
2022/03/22 16:16:57;;;;;;;4.73;4.40;;;;;;;;;;5068756;28;20724;-68
2022/03/22 16:19:44;;;;;;;4.90;4.60;;;;;;;;;;5067568;28;20294;-68
2022/03/22 16:22:31;;;;;;;5.40;5.00;;;;;;;;;;5074278;28;21265;-68
2022/03/22 16:25:18;;;;;;;4.67;4.37;;;;;;;;;;5078205;28;20339;-68
2022/03/22 16:28:05;;;;;;;5.43;5.03;;;;;;;;;;5072422;28;20297;-68
2022/03/22 16:30:54;;;;;;;4.70;4.40;;;;;;;;;;5073999;28;20213;-68
2022/03/22 16:36:49;;;;;;;7.53;4.77;;;;;;;;;;5074588;28;20299;-68
2022/03/22 16:39:39;;;;;;;5.37;4.97;;;;;;;;;;5070797;28;20236;-69
2022/03/22 16:42:26;;;;;;;5.17;4.77;;;;;;;;;;5069172;28;20209;-68
2022/03/22 16:45:13;;;;;;;5.70;5.20;;;;;;;;;;5073946;28;20228;-68
2022/03/22 16:48:01;;;;;;;5.10;4.80;;;;;;;;;;5079041;28;20257;-68
2022/03/22 16:50:50;;;;;;;5.67;5.17;;;;;;;;;;5078736;28;20802;-68
2022/03/22 16:53:39;;;;;;;5.83;5.43;;;;;;;;;;5068680;28;20603;-68
2022/03/22 16:56:26;;;;;;;5.53;5.13;;;;;;;;;;5070700;28;20742;-68
2022/03/22 16:59:13;;;;;;;5.20;4.80;;;;;;;;;;5072362;28;20738;-69
2022/03/22 17:02:00;;;;;;;4.97;4.67;;;;;;;;;;5067492;28;20214;-68
2022/03/22 17:04:49;;;;;;;5.13;4.73;;;;;;;;;;5071291;28;21020;-69
2022/03/22 17:07:36;;;;;;;5.67;5.20;;;;;;;;;;5077529;28;20327;-68
2022/03/22 17:10:25;;;;;;;4.97;4.67;;;;;;;;;;5076018;28;20236;-68
2022/03/22 17:13:12;;;;;;;5.53;5.13;;;;;;;;;;5068337;28;20214;-68
2022/03/22 17:15:59;;;;;;;5.53;5.10;;;;;;;;;;5073463;28;20221;-68
2022/03/22 17:18:46;;;;;;;5.53;5.13;;;;;;;;;;5076286;28;20314;-68
2022/03/22 17:21:35;;;;;;;5.77;5.27;;;;;;;;;;5076532;28;20240;-68
2022/03/22 17:24:22;;;;;;;5.90;5.40;;;;;;;;;;5072490;28;20215;-68
2022/03/22 17:27:09;;;;;;;5.70;5.27;;;;;;;;;;5073150;28;20243;-68
2022/03/22 17:29:56;;;;;;;5.93;5.33;;;;;;;;;;5079883;28;20597;-68
2022/03/22 17:32:44;;;;;;;5.70;5.20;;;;;;;;;;5070202;28;20265;-68
2022/03/22 17:35:31;;;;;;;5.40;5.00;;;;;;;;;;5072508;28;20224;-68
2022/03/22 17:38:20;;;;;;;6.60;6.00;;;;;;;;;;5075647;28;20292;-68
2022/03/22 17:41:11;;;;;;;5.77;5.27;;;;;;;;;;5077806;28;20217;-69